Time;durP1;ratioP1;P1;durP2;ratioP2;P2;SDS_P1;SDS_P2;PMS_P1;PMS_P2;Temp;Humidity;BMP_temperature;BMP_pressure;BME280_temperature;BME280_humidity;BME280_pressure;Samples;Min_cycle;Max_cycle;Signal;HPM_P1;HPM_P2
2022/09/20 00:01:36;;;;;;;;;1.00;1.00;;;;;15.38;47.50;101685.84;4833462;29;45636;-85
2022/09/20 00:04:03;;;;;;;;;2.00;1.00;;;;;15.31;47.38;101676.69;4833663;29;45591;-84
2022/09/20 00:06:30;;;;;;;;;1.00;1.00;;;;;15.25;47.43;101670.06;4833262;29;45505;-84
2022/09/20 00:08:58;;;;;;;;;1.75;1.50;;;;;15.35;47.66;101676.34;4833822;29;45519;-84
2022/09/20 00:11:29;;;;;;;;;2.50;2.00;;;;;15.33;47.50;101685.34;4834043;29;45758;-81
2022/09/20 00:13:56;;;;;;;;;1.25;1.00;;;;;15.22;47.29;101667.66;4834301;29;45529;-83
2022/09/20 00:16:32;;;;;;;;;1.50;1.00;;;;;15.30;47.51;101682.91;4833013;29;46685;-82
2022/09/20 00:19:00;;;;;;;;;2.00;1.00;;;;;15.19;47.58;101672.31;4828426;29;46239;-84
2022/09/20 00:24:46;;;;;;;;;1.50;1.00;;;;;15.10;47.83;101673.84;4825386;29;45526;-87
2022/09/20 00:27:12;;;;;;;;;3.00;1.00;;;;;15.11;47.99;101680.81;4824946;29;45670;-86
2022/09/20 00:29:38;;;;;;;;;3.25;1.25;;;;;15.03;48.39;101667.31;4824643;29;46010;-84
2022/09/20 00:32:04;;;;;;;;;1.50;1.00;;;;;15.06;48.06;101675.84;4825239;29;45683;-85
2022/09/20 00:37:13;;;;;;;;;1.00;1.00;;;;;15.08;48.27;101683.66;4825228;29;45568;-85
2022/09/20 00:39:39;;;;;;;;;1.00;1.00;;;;;15.07;48.09;101680.16;4824856;29;45983;-80
2022/09/20 00:42:04;;;;;;;;;0.00;0.00;;;;;15.06;48.49;101685.56;4824665;29;45703;-84
2022/09/20 00:44:59;;;;;;;;;1.00;1.00;;;;;15.02;48.20;101677.00;4825143;29;45599;-84
2022/09/20 00:47:33;;;;;;;;;0.25;0.25;;;;;15.01;48.66;101675.31;4824557;29;46014;-82
2022/09/20 00:50:27;;;;;;;;;1.00;1.00;;;;;15.01;48.34;101670.03;4825058;29;45496;-84
2022/09/20 00:53:08;;;;;;;;;1.50;1.00;;;;;14.95;48.39;101667.03;4814900;29;45881;-81
2022/09/20 00:55:39;;;;;;;;;2.50;1.25;;;;;15.00;48.35;101671.03;4824382;29;45647;-81
2022/09/20 00:58:05;;;;;;;;;3.00;1.50;;;;;14.93;48.49;101661.84;4807636;29;49047;-81
2022/09/20 01:00:31;;;;;;;;;2.00;1.00;;;;;14.62;48.83;101618.38;4824285;29;46120;-84
2022/09/20 01:03:03;;;;;;;;;2.00;1.50;;;;;14.91;49.10;101673.47;4823708;29;45686;-86
2022/09/20 01:05:29;;;;;;;;;3.00;1.25;;;;;14.91;48.90;101678.75;4823854;29;45895;-86
2022/09/20 01:07:55;;;;;;;;;1.00;1.00;;;;;14.77;49.21;101658.63;4823641;29;47245;-88
2022/09/20 01:10:21;;;;;;;;;2.25;2.00;;;;;14.76;49.39;101667.50;4823008;29;46304;-83
2022/09/20 01:12:49;;;;;;;;;4.75;2.50;;;;;14.70;49.56;101674.06;4823681;29;45725;-86
2022/09/20 01:15:14;;;;;;;;;1.00;1.00;;;;;14.59;49.87;101673.13;4823680;29;45894;-82
2022/09/20 01:17:46;;;;;;;;;4.50;1.00;;;;;14.59;49.55;101681.88;4823979;29;47373;-84
2022/09/20 01:20:16;;;;;;;;;2.00;2.00;;;;;14.46;50.02;101656.50;4822592;29;48578;-83
2022/09/20 01:22:56;;;;;;;;;2.00;2.00;;;;;14.52;49.94;101666.63;4824011;29;45843;-86
2022/09/20 01:25:45;;;;;;;;;3.25;2.00;;;;;14.51;49.99;101667.56;4824035;29;45879;-81
2022/09/20 01:28:11;;;;;;;;;2.00;1.50;;;;;14.51;50.22;101657.03;4824230;29;46568;-83
2022/09/20 01:30:58;;;;;;;;;2.00;2.00;;;;;14.46;50.09;101652.06;4824195;29;45592;-79
2022/09/20 01:33:43;;;;;;;;;2.00;2.00;;;;;14.46;50.09;101653.88;4823922;29;45845;-81
2022/09/20 01:36:12;;;;;;;;;3.50;3.00;;;;;14.47;50.02;101658.16;4824015;29;45450;-85
2022/09/20 01:39:15;;;;;;;;;1.75;1.75;;;;;14.48;50.19;101658.06;4824517;29;45576;-86
2022/09/20 01:41:49;;;;;;;;;4.00;2.75;;;;;14.46;50.09;101656.50;4824404;29;46125;-85
2022/09/20 01:44:21;;;;;;;;;2.00;2.00;;;;;14.46;50.29;101652.06;4824997;29;45618;-87
2022/09/20 01:46:52;;;;;;;;;2.00;2.00;;;;;14.48;50.37;101657.22;4824584;29;45528;-86
2022/09/20 01:49:36;;;;;;;;;2.25;1.50;;;;;14.47;50.06;101656.38;4811590;29;46263;-87
2022/09/20 01:52:24;;;;;;;;;2.75;2.00;;;;;14.49;50.18;101656.28;4833649;29;46324;-86
2022/09/20 01:55:18;;;;;;;;;2.75;2.00;;;;;14.50;50.23;101655.31;4832343;29;45575;-85
2022/09/20 01:58:21;;;;;;;;;1.00;1.00;;;;;14.51;50.43;101657.03;4827836;29;45748;-85
2022/09/20 02:01:20;;;;;;;;;2.25;2.00;;;;;14.52;50.25;101646.34;4824233;29;45549;-86
2022/09/20 02:03:45;;;;;;;;;2.00;2.00;;;;;14.51;50.33;101649.09;4824414;29;46183;-85
2022/09/20 02:09:55;;;;;;;;;1.00;1.00;;;;;14.48;50.16;101638.75;4834325;29;45594;-83
2022/09/20 02:12:52;;;;;;;;;2.00;2.00;;;;;14.48;50.78;101642.25;4836031;29;45579;-85
2022/09/20 02:15:40;;;;;;;;;1.00;1.00;;;;;14.38;50.90;101624.53;4833126;29;46190;-78
2022/09/20 02:18:08;;;;;;;;;1.25;1.00;;;;;14.43;51.16;101643.50;4829334;29;45767;-81
2022/09/20 02:21:01;;;;;;;;;2.00;1.00;;;;;14.39;50.92;101660.50;4831532;29;45903;-83
2022/09/20 02:23:35;;;;;;;;;4.00;2.00;;;;;14.34;51.34;101652.91;4832525;29;45597;-83
2022/09/20 02:26:58;;;;;;;;;2.00;1.75;;;;;14.29;50.98;101647.09;4828967;29;47937;-80
2022/09/20 02:29:58;;;;;;;;;1.75;1.75;;;;;14.20;51.61;101648.56;4753442;29;45664;-82
2022/09/20 02:32:24;;;;;;;;;1.00;1.00;;;;;14.09;51.93;101659.00;4700028;30;45845;-85
2022/09/20 02:35:14;;;;;;;;;2.25;2.25;;;;;14.01;51.69;101657.88;4700675;30;45670;-85
2022/09/20 02:38:01;;;;;;;;;2.00;2.00;;;;;13.95;51.90;101661.75;4700147;30;46438;-87
2022/09/20 02:40:44;;;;;;;;;1.75;1.50;;;;;13.88;52.05;101653.44;4700720;30;45718;-84
2022/09/20 02:43:55;;;;;;;;;1.50;1.50;;;;;13.78;51.91;101672.59;4700369;30;45812;-85
2022/09/20 02:46:36;;;;;;;;;2.75;2.00;;;;;13.69;52.10;101665.31;4664724;30;45915;-82
2022/09/20 02:49:20;;;;;;;;;1.00;1.00;;;;;13.59;52.58;101656.34;4664080;30;47386;-86
2022/09/20 02:55:17;;;;;;;;;1.50;1.00;;;;;13.52;52.96;101662.97;4663705;30;45991;-80
2022/09/20 02:58:06;;;;;;;;;3.00;2.00;;;;;13.45;52.83;101666.00;4664148;30;46015;-82
2022/09/20 03:00:58;;;;;;;;;1.00;1.00;;;;;13.37;52.63;101663.03;4686990;30;45664;-79
2022/09/20 03:03:42;;;;;;;;;2.75;2.00;;;;;13.39;53.03;101655.88;4686774;30;45577;-79
2022/09/20 03:06:48;;;;;;;;;1.00;1.00;;;;;13.37;53.15;101662.19;4686418;30;45690;-81
2022/09/20 03:09:36;;;;;;;;;1.00;1.00;;;;;13.32;53.21;101659.03;4708308;30;47099;-80
2022/09/20 03:12:24;;;;;;;;;1.00;1.00;;;;;13.22;53.22;101655.31;4704176;30;46165;-84
2022/09/20 03:14:58;;;;;;;;;1.00;1.00;;;;;13.21;53.30;101658.88;4721343;30;45396;-81
2022/09/20 03:18:02;;;;;;;;;1.00;1.00;;;;;13.22;53.41;101661.41;4704436;30;45944;-81
2022/09/20 03:24:16;;;;;;;;;1.00;1.00;;;;;13.18;53.35;101651.16;4714254;29;46082;-84
2022/09/20 03:26:55;;;;;;;;;2.50;2.00;;;;;13.17;53.77;101657.41;4717262;30;45894;-82
2022/09/20 03:29:21;;;;;;;;;3.00;2.00;;;;;13.15;53.85;101652.22;4716849;30;45638;-80
2022/09/20 03:32:00;;;;;;;;;2.50;2.00;;;;;13.14;54.30;101660.22;4716215;30;45856;-83
2022/09/20 03:34:44;;;;;;;;;1.50;1.50;;;;;13.14;53.69;101649.69;4715339;30;46017;-82
2022/09/20 03:41:05;;;;;;;;;1.00;1.00;;;;;13.08;53.93;101643.00;4741789;29;45699;-84
2022/09/20 03:43:49;;;;;;;;;2.00;1.00;;;;;13.15;54.20;101660.13;4769107;29;45687;-86
2022/09/20 03:46:18;;;;;;;;;2.50;1.75;;;;;13.14;53.95;101658.44;4769232;29;45716;-85
2022/09/20 03:49:04;;;;;;;;;0.25;0.25;;;;;13.16;53.88;101664.44;4769701;29;45584;-81
2022/09/20 03:51:54;;;;;;;;;3.75;2.00;;;;;13.16;53.89;101659.19;4769604;29;45566;-85
2022/09/20 03:54:49;;;;;;;;;3.00;2.00;;;;;13.07;54.07;101640.47;4769407;29;46387;-85
2022/09/20 03:57:26;;;;;;;;;2.25;2.00;;;;;13.16;54.06;101659.19;4778802;29;46726;-84
2022/09/20 04:00:01;;;;;;;;;2.00;1.00;;;;;13.18;53.73;101654.66;4799985;29;45941;-86
2022/09/20 04:02:40;;;;;;;;;1.50;1.50;;;;;13.19;54.25;101653.72;4827802;29;45798;-87
2022/09/20 04:05:11;;;;;;;;;2.00;2.00;;;;;13.19;54.36;101650.22;4826080;29;45621;-82
2022/09/20 04:07:46;;;;;;;;;2.00;2.00;;;;;13.17;54.30;101644.25;4809954;29;48232;-86
2022/09/20 04:10:32;;;;;;;;;2.00;2.00;;;;;13.11;54.48;101641.97;4825410;29;45649;-84
2022/09/20 04:13:12;;;;;;;;;3.00;2.25;;;;;13.15;54.17;101654.00;4828655;29;45548;-87
2022/09/20 04:16:08;;;;;;;;;1.00;1.00;;;;;13.13;53.84;101648.84;4829178;29;46622;-85
2022/09/20 04:18:44;;;;;;;;;1.75;1.75;;;;;13.16;54.58;101653.06;4823400;29;47878;-83
2022/09/20 04:24:45;;;;;;;;;2.00;1.00;;;;;13.20;54.12;101659.81;4839922;29;45007;-82
2022/09/20 04:27:26;;;;;;;;;3.00;1.75;;;;;13.22;54.23;101657.94;4837795;29;46318;-82
2022/09/20 04:29:59;;;;;;;;;2.75;2.00;;;;;13.24;54.58;101650.78;4837275;29;46215;-80
2022/09/20 04:32:39;;;;;;;;;2.25;2.00;;;;;13.24;54.49;101656.88;4837432;29;45624;-82
2022/09/20 04:41:41;;;;;;;;;2.25;2.25;;;;;13.26;54.34;101662.91;4825372;29;46071;-86
2022/09/20 04:44:37;;;;;;;;;1.50;1.25;;;;;13.27;54.80;101669.84;4825307;29;45636;-87
2022/09/20 04:47:27;;;;;;;;;3.00;2.00;;;;;13.27;54.60;101661.13;4825443;29;45591;-84
2022/09/20 04:50:18;;;;;;;;;2.00;1.00;;;;;13.24;55.15;101664.78;4825276;29;45651;-81
2022/09/20 04:52:46;;;;;;;;;0.50;0.50;;;;;13.22;55.01;101664.06;4786239;29;45655;-82
2022/09/20 04:55:30;;;;;;;;;2.00;2.00;;;;;13.18;55.17;101672.22;4786362;29;45781;-79
2022/09/20 04:58:26;;;;;;;;;2.75;2.50;;;;;13.11;55.28;101669.13;4786692;29;45654;-81
2022/09/20 05:01:15;;;;;;;;;3.75;3.00;;;;;13.02;55.14;101672.34;4786952;29;45696;-83
2022/09/20 05:04:05;;;;;;;;;3.00;2.00;;;;;13.04;55.43;101676.56;4787321;29;46052;-84
2022/09/20 05:06:45;;;;;;;;;2.50;1.00;;;;;13.01;55.43;101679.38;4788025;29;45906;-84
2022/09/20 05:09:41;;;;;;;;;2.50;2.50;;;;;13.02;55.39;101682.84;4789104;29;45825;-79
2022/09/20 05:12:26;;;;;;;;;2.50;2.00;;;;;13.00;55.71;101682.97;4787832;29;46677;-83
2022/09/20 05:15:07;;;;;;;;;2.75;2.25;;;;;12.99;55.27;101683.06;4789464;29;47458;-86
2022/09/20 05:17:53;;;;;;;;;2.50;2.00;;;;;12.92;55.87;101669.44;4795080;29;45621;-82
2022/09/20 05:21:00;;;;;;;;;2.00;2.00;;;;;12.97;55.98;101674.41;4790995;29;45691;-81
2022/09/20 05:26:58;;;;;;;;;2.00;1.75;;;;;12.92;55.85;101673.88;4748679;29;46315;-84
2022/09/20 05:29:49;;;;;;;;;2.25;2.00;;;;;12.91;55.81;101673.03;4755687;29;45734;-84
2022/09/20 05:32:39;;;;;;;;;5.00;2.75;;;;;12.93;55.55;101670.31;4768727;29;45934;-81
2022/09/20 05:35:27;;;;;;;;;3.00;3.00;;;;;12.81;55.72;101648.25;4768110;29;46510;-78
2022/09/20 05:38:11;;;;;;;;;3.00;2.25;;;;;12.99;56.13;101672.53;4767421;29;46286;-86
2022/09/20 05:41:01;;;;;;;;;3.00;2.00;;;;;13.01;55.86;101674.13;4767603;29;45843;-74
2022/09/20 05:43:32;;;;;;;;;2.00;2.00;;;;;13.02;55.87;101681.06;4766541;29;45643;-74
2022/09/20 05:46:35;;;;;;;;;3.50;2.00;;;;;13.04;56.02;101680.97;4766022;29;46725;-77
2022/09/20 05:49:38;;;;;;;;;3.00;2.25;;;;;13.04;55.73;101683.63;4752537;29;46350;-77
2022/09/20 05:55:53;;;;;;;;;4.25;3.00;;;;;13.12;55.97;101680.53;4765151;29;45943;-75
2022/09/20 05:58:52;;;;;;;;;3.00;3.00;;;;;13.15;55.90;101686.44;4765562;29;46407;-77
2022/09/20 06:01:38;;;;;;;;;3.00;3.00;;;;;13.20;55.72;101686.13;4817600;29;46380;-77
2022/09/20 06:04:09;;;;;;;;;4.00;4.00;;;;;13.25;55.37;101687.53;4822808;29;45805;-77
2022/09/20 06:07:04;;;;;;;;;2.00;2.00;;;;;13.29;55.18;101683.75;4823013;29;45609;-76
2022/09/20 06:09:57;;;;;;;;;3.00;3.00;;;;;13.35;55.78;101691.25;4822381;29;45950;-75
2022/09/20 06:12:37;;;;;;;;;2.75;2.75;;;;;13.39;55.61;101695.34;4823067;29;46131;-74
2022/09/20 06:15:24;;;;;;;;;4.00;3.00;;;;;13.41;55.26;101701.38;4823009;29;45873;-75
2022/09/20 06:18:06;;;;;;;;;4.75;3.25;;;;;13.37;55.71;101699.03;4822787;29;45948;-76
2022/09/20 06:20:41;;;;;;;;;2.00;2.00;;;;;13.47;55.24;101701.91;4822736;29;47584;-75
2022/09/20 06:26:35;;;;;;;;;18.50;15.00;;;;;13.55;55.24;101708.34;4822433;29;45553;-75
2022/09/20 06:29:10;;;;;;;;;11.00;9.50;;;;;13.57;54.81;101697.72;4822338;29;45622;-75
2022/09/20 06:31:36;;;;;;;;;6.25;5.00;;;;;13.67;54.79;101706.69;4821926;29;47142;-76
2022/09/20 06:34:12;;;;;;;;;5.25;4.50;;;;;13.71;55.00;101705.56;4822124;29;47051;-74
2022/09/20 06:42:48;;;;;;;;;4.00;3.50;;;;;13.84;54.94;101715.19;4821995;29;46112;-77
2022/09/20 06:45:14;;;;;;;;;4.00;3.00;;;;;13.86;55.39;101720.34;4821987;29;46245;-77
2022/09/20 06:47:39;;;;;;;;;4.00;4.00;;;;;13.87;55.17;101727.31;4820882;29;45712;-76
2022/09/20 06:50:06;;;;;;;;;6.00;5.00;;;;;13.83;55.44;101708.22;4822367;29;45549;-74
2022/09/20 06:52:31;;;;;;;;;4.00;4.00;;;;;13.86;55.57;101721.19;4821988;29;45860;-74
2022/09/20 06:58:58;;;;;;;;;3.25;3.00;;;;;13.90;55.19;101729.72;4820979;29;45846;-74
2022/09/20 07:01:23;;;;;;;;;8.25;4.25;;;;;13.92;55.06;101727.00;4822178;29;45555;-75
2022/09/20 07:03:49;;;;;;;;;4.50;4.00;;;;;13.83;55.22;101716.13;4805138;29;47459;-74
2022/09/20 07:06:18;;;;;;;;;4.25;4.25;;;;;13.88;55.28;101724.56;4821888;29;47033;-75
2022/09/20 07:08:47;;;;;;;;;3.75;3.50;;;;;13.80;55.05;101718.13;4822363;29;45553;-74
2022/09/20 07:11:15;;;;;;;;;4.50;3.50;;;;;13.71;55.47;101709.03;4824999;29;45518;-73
2022/09/20 07:13:48;;;;;;;;;5.25;2.00;;;;;13.63;55.39;101713.13;4824578;29;45693;-73
2022/09/20 07:16:14;;;;;;;;;5.00;4.50;;;;;13.67;55.42;101733.88;4824745;29;46150;-73
2022/09/20 07:18:41;;;;;;;;;7.00;4.00;;;;;13.61;55.40;101723.75;4825051;29;45649;-74
2022/09/20 07:21:14;;;;;;;;;6.75;4.75;;;;;13.51;55.56;101717.41;4825013;29;45602;-74
2022/09/20 07:23:40;;;;;;;;;6.00;4.25;;;;;13.54;55.78;101732.16;4824564;29;46388;-75
2022/09/20 07:26:14;;;;;;;;;7.25;3.25;;;;;13.43;55.97;101724.97;4824844;29;46354;-75
2022/09/20 07:28:40;;;;;;;;;6.25;4.50;;;;;13.42;55.59;101732.03;4824733;29;45592;-75
2022/09/20 07:31:05;;;;;;;;;3.50;3.00;;;;;13.33;55.60;101734.41;4824925;29;45728;-74
2022/09/20 07:33:31;;;;;;;;;4.50;4.25;;;;;13.34;55.75;101743.97;4807920;29;47403;-73
2022/09/20 07:35:56;;;;;;;;;5.25;4.25;;;;;13.35;56.18;101745.66;4824405;29;46247;-74
2022/09/20 07:38:22;;;;;;;;;3.00;3.00;;;;;13.22;55.86;101737.75;4824482;29;45631;-74
2022/09/20 07:40:59;;;;;;;;;3.25;3.25;;;;;13.32;55.93;101759.03;4824867;29;45634;-74
2022/09/20 07:43:25;;;;;;;;;3.50;3.50;;;;;13.31;56.37;101758.19;4824660;29;46417;-75
2022/09/20 07:45:54;;;;;;;;;5.00;4.00;;;;;13.29;56.25;101754.81;4824291;29;47230;-75
2022/09/20 07:48:29;;;;;;;;;3.50;3.50;;;;;13.27;55.96;101750.59;4824621;29;45994;-75
2022/09/20 07:51:01;;;;;;;;;6.00;5.75;;;;;13.26;56.54;101748.91;4824839;29;45558;-75
2022/09/20 07:53:28;;;;;;;;;4.25;4.25;;;;;13.29;56.65;101764.47;4824284;29;47032;-76
2022/09/20 07:55:57;;;;;;;;;5.00;5.00;;;;;13.32;56.29;101759.88;4824272;29;46171;-75
2022/09/20 07:58:22;;;;;;;;;4.00;4.00;;;;;13.32;56.38;101759.03;4824269;29;45600;-74
2022/09/20 08:00:52;;;;;;;;;4.75;4.75;;;;;13.37;56.18;101762.22;4824515;29;45515;-75
2022/09/20 08:03:18;;;;;;;;;5.00;4.00;;;;;13.40;56.50;101751.47;4824513;29;45599;-74
2022/09/20 08:05:44;;;;;;;;;4.50;4.00;;;;;13.49;56.23;101766.69;4824052;29;46150;-74
2022/09/20 08:08:10;;;;;;;;;5.00;4.00;;;;;13.51;56.31;101763.94;4824534;29;45620;-74
2022/09/20 08:13:59;;;;;;;;;5.00;4.25;;;;;13.62;56.09;101769.38;4823935;29;45604;-76
2022/09/20 08:16:26;;;;;;;;;6.00;5.00;;;;;13.67;56.13;101773.38;4823744;29;46241;-76
2022/09/20 08:18:57;;;;;;;;;5.75;5.00;;;;;13.65;55.91;101759.50;4824074;29;45855;-75
2022/09/20 08:21:29;;;;;;;;;4.75;4.75;;;;;13.78;55.67;101778.81;4823648;29;45656;-75
2022/09/20 08:23:55;;;;;;;;;5.00;4.00;;;;;13.84;55.86;101775.75;4822924;29;47576;-76
2022/09/20 08:26:23;;;;;;;;;4.75;3.75;;;;;13.90;55.61;101774.50;4807407;29;47904;-78
2022/09/20 08:28:52;;;;;;;;;4.00;4.00;;;;;13.98;55.36;101777.47;4823899;29;45760;-76
2022/09/20 08:31:19;;;;;;;;;5.75;4.50;;;;;14.04;55.24;101776.22;4823500;29;45847;-74
2022/09/20 08:33:47;;;;;;;;;4.00;4.00;;;;;14.10;55.03;101776.66;4824798;29;46765;-80
2022/09/20 08:36:24;;;;;;;;;4.50;3.00;;;;;14.05;55.29;101760.31;4824304;29;46188;-82
2022/09/20 08:38:52;;;;;;;;;3.00;3.00;;;;;14.20;54.79;101775.09;4825351;29;45800;-83
2022/09/20 08:41:24;;;;;;;;;3.00;3.00;;;;;14.21;55.28;101765.38;4826577;29;45687;-83
2022/09/20 08:44:04;;;;;;;;;4.75;4.75;;;;;14.37;54.91;101783.69;4825865;29;45842;-77
2022/09/20 08:46:38;;;;;;;;;4.00;3.75;;;;;14.39;54.61;101781.78;4823717;29;45721;-86
2022/09/20 08:49:06;;;;;;;;;6.75;5.00;;;;;14.50;54.97;101792.47;4825646;29;45530;-82
2022/09/20 08:51:34;;;;;;;;;4.00;4.00;;;;;14.51;55.05;101789.72;4825867;29;45890;-79
2022/09/20 08:54:00;;;;;;;;;3.50;3.00;;;;;14.56;54.79;101792.88;4825342;29;48017;-76
2022/09/20 08:56:35;;;;;;;;;6.00;4.00;;;;;14.67;54.60;101800.06;4823490;29;45633;-75
2022/09/20 08:59:02;;;;;;;;;6.00;4.25;;;;;14.67;54.57;101797.41;4823247;29;45889;-78
2022/09/20 09:01:31;;;;;;;;;3.25;3.25;;;;;14.76;54.02;101798.56;4806940;29;45927;-77
2022/09/20 09:04:17;;;;;;;;;4.75;4.00;;;;;14.81;54.13;101802.56;4823128;29;46437;-77
2022/09/20 09:06:44;;;;;;;;;4.75;4.00;;;;;14.87;53.99;101796.03;4823661;29;45952;-78
2022/09/20 09:09:25;;;;;;;;;4.50;4.00;;;;;14.88;54.10;101789.81;4823484;29;45527;-79
2022/09/20 09:11:52;;;;;;;;;4.00;3.75;;;;;14.94;53.95;101790.22;4823149;29;45681;-80
2022/09/20 09:17:10;;;;;;;;;4.75;4.00;;;;;15.05;53.92;101794.75;4822516;29;45659;-78
2022/09/20 09:19:47;;;;;;;;;6.00;3.25;;;;;15.12;53.47;101796.81;4822353;29;45766;-76
2022/09/20 09:22:19;;;;;;;;;4.75;4.75;;;;;15.19;53.23;101799.88;4822585;29;45671;-77
2022/09/20 09:24:45;;;;;;;;;5.00;4.00;;;;;15.20;53.51;101791.00;4821807;29;47270;-77
2022/09/20 09:27:15;;;;;;;;;4.75;4.00;;;;;15.30;53.39;101794.66;4822984;29;45742;-74
2022/09/20 09:29:54;;;;;;;;;6.50;4.00;;;;;15.32;53.09;101790.13;4823113;29;45485;-72
2022/09/20 09:32:30;;;;;;;;;4.00;3.00;;;;;15.41;52.98;101789.47;4821567;29;45679;-73
2022/09/20 09:35:17;;;;;;;;;5.75;4.50;;;;;15.48;53.08;101789.88;4822712;29;46422;-73
2022/09/20 09:37:53;;;;;;;;;3.75;3.75;;;;;15.55;52.73;101795.59;4822760;29;45915;-75
2022/09/20 09:40:19;;;;;;;;;4.75;4.00;;;;;15.60;52.23;101790.81;4822657;29;45701;-74
2022/09/20 09:42:52;;;;;;;;;5.50;2.75;;;;;15.61;52.83;101788.03;4822646;29;45579;-73
2022/09/20 09:45:26;;;;;;;;;7.75;3.75;;;;;15.69;52.24;101793.59;4822714;29;46496;-74
2022/09/20 09:47:52;;;;;;;;;4.50;4.50;;;;;15.63;52.20;101780.00;4822719;29;46226;-73
2022/09/20 09:50:32;;;;;;;;;4.25;4.25;;;;;15.74;52.11;101790.63;4822900;29;45818;-74
2022/09/20 09:53:09;;;;;;;;;5.50;4.50;;;;;15.74;52.01;101775.63;4821308;29;46006;-74
2022/09/20 09:56:18;;;;;;;;;5.25;5.00;;;;;15.85;51.87;101786.22;4822277;29;45870;-74
2022/09/20 09:59:13;;;;;;;;;2.50;2.25;;;;;15.96;51.39;101793.38;4821314;29;46464;-79
2022/09/20 10:02:00;;;;;;;;;4.00;3.00;;;;;15.94;51.64;101784.69;4821817;29;45780;-77
2022/09/20 10:04:38;;;;;;;;;4.00;3.25;;;;;15.99;51.00;101792.28;4821103;29;45578;-77
2022/09/20 10:07:16;;;;;;;;;4.50;3.00;;;;;16.03;50.96;101791.09;4821181;29;46396;-75
2022/09/20 10:13:03;;;;;;;;;3.25;2.00;;;;;16.12;50.67;101787.75;4821339;29;45861;-75
2022/09/20 10:15:46;;;;;;;;;4.00;4.00;;;;;16.16;50.40;101783.91;4821671;29;45606;-74
2022/09/20 10:18:21;;;;;;;;;4.25;3.25;;;;;16.19;50.35;101779.25;4822291;29;47370;-75
2022/09/20 10:21:06;;;;;;;;;4.00;3.00;;;;;16.23;50.17;101786.00;4822019;29;47414;-73
2022/09/20 10:23:36;;;;;;;;;3.25;3.00;;;;;16.25;50.00;101784.06;4821991;29;45639;-75
2022/09/20 10:29:26;;;;;;;;;2.50;2.00;;;;;16.32;49.38;101782.66;4822531;29;45628;-75
2022/09/20 10:32:12;;;;;;;;;2.50;2.00;;;;;16.37;48.89;101784.94;4822866;29;45837;-75
2022/09/20 10:35:16;;;;;;;;;3.50;3.00;;;;;16.41;48.95;101782.91;4822771;29;45643;-76
2022/09/20 10:37:51;;;;;;;;;4.50;3.75;;;;;16.45;48.88;101782.56;4822772;29;45614;-75
2022/09/20 10:43:13;;;;;;;;;4.75;2.00;;;;;16.50;48.69;101777.75;4822035;29;47267;-73
2022/09/20 10:43:41;;;;;;;;;2.75;2.75;;;;;16.52;48.52;101770.53;4823003;29;45598;-75
2022/09/20 10:46:12;;;;;;;;;3.00;2.00;;;;;16.61;48.39;101776.94;4825420;29;45521;-75
2022/09/20 10:48:44;;;;;;;;;2.00;1.00;;;;;16.66;48.01;101778.28;4825796;29;45560;-76
2022/09/20 10:51:24;;;;;;;;;2.00;1.00;;;;;16.71;47.82;101776.13;4808735;29;48900;-75
2022/09/20 10:53:57;;;;;;;;;2.50;2.00;;;;;16.73;47.80;101768.88;4824850;29;46155;-75
2022/09/20 10:56:23;;;;;;;;;3.00;2.00;;;;;16.68;48.13;101749.88;4825474;29;45658;-75
2022/09/20 10:59:03;;;;;;;;;3.00;2.00;;;;;16.87;48.09;101759.88;4825154;29;45576;-74
2022/09/20 11:01:47;;;;;;;;;3.00;3.00;;;;;16.93;47.78;101767.31;4824928;29;46408;-76
2022/09/20 11:04:45;;;;;;;;;4.00;3.00;;;;;17.02;47.80;101768.38;4824752;29;45594;-74
2022/09/20 11:07:25;;;;;;;;;2.50;2.50;;;;;17.10;47.82;101764.19;4823728;29;45731;-74
2022/09/20 11:09:58;;;;;;;;;4.25;3.00;;;;;17.17;47.57;101765.34;4824906;29;45685;-73
2022/09/20 11:12:56;;;;;;;;;2.25;2.00;;;;;17.25;47.38;101764.75;4824421;29;46600;-74
2022/09/20 11:15:28;;;;;;;;;2.00;2.00;;;;;17.30;46.82;101764.38;4823337;29;47179;-74
2022/09/20 11:18:09;;;;;;;;;1.75;1.50;;;;;17.42;46.39;101766.03;4824833;29;45754;-74
2022/09/20 11:20:43;;;;;;;;;2.00;2.00;;;;;17.47;46.70;101766.50;4824971;29;45538;-75
2022/09/20 11:23:18;;;;;;;;;4.00;2.00;;;;;17.45;46.23;101753.38;4824975;29;46217;-74
2022/09/20 11:29:25;;;;;;;;;3.00;2.50;;;;;17.65;46.00;101765.03;4824981;29;45769;-74
2022/09/20 11:31:54;;;;;;;;;2.25;2.00;;;;;17.65;45.70;101751.78;4825112;29;45664;-74
2022/09/20 11:34:27;;;;;;;;;9.00;7.00;;;;;17.78;45.87;101762.19;4824483;29;46425;-74
2022/09/20 11:36:57;;;;;;;;;4.00;2.50;;;;;17.81;45.77;101749.56;4824804;29;46045;-73
2022/09/20 11:39:40;;;;;;;;;3.00;2.00;;;;;17.93;45.28;101753.81;4824732;29;45572;-74
2022/09/20 11:45:28;;;;;;;;;2.75;2.00;;;;;18.05;44.60;101762.56;4824418;29;45745;-73
2022/09/20 11:48:01;;;;;;;;;2.00;1.50;;;;;18.03;44.59;101752.06;4824583;29;45879;-74
2022/09/20 11:50:50;;;;;;;;;2.00;2.00;;;;;18.14;44.40;101761.78;4824602;29;45610;-75
2022/09/20 11:53:43;;;;;;;;;4.25;2.00;;;;;18.20;44.34;101758.59;4824477;29;45530;-74
2022/09/20 11:56:38;;;;;;;;;2.25;2.25;;;;;18.26;43.96;101757.25;4823611;29;46613;-72
2022/09/20 11:59:19;;;;;;;;;1.25;1.00;;;;;18.27;43.60;101756.28;4749357;29;46294;-76
2022/09/20 12:01:45;;;;;;;;;1.00;1.00;;;;;18.20;43.73;101747.16;4750086;29;45665;-75
2022/09/20 12:04:30;;;;;;;;;2.00;2.00;;;;;18.24;43.31;101751.25;4749887;29;45685;-75
2022/09/20 12:07:21;;;;;;;;;4.00;3.25;;;;;18.19;43.53;101750.78;4749802;29;45692;-74
2022/09/20 12:09:57;;;;;;;;;3.00;2.00;;;;;18.20;43.85;101755.94;4749618;29;46150;-75
2022/09/20 12:12:40;;;;;;;;;2.00;2.00;;;;;18.21;43.80;101760.28;4749342;29;45904;-74
2022/09/20 12:15:25;;;;;;;;;2.00;2.00;;;;;18.24;43.83;101759.19;4749345;29;45946;-75
2022/09/20 12:17:51;;;;;;;;;4.00;3.00;;;;;18.24;43.85;101753.91;4749748;29;47000;-74
2022/09/20 12:20:31;;;;;;;;;4.75;3.50;;;;;18.26;43.87;101751.94;4749581;29;45990;-76
2022/09/20 12:23:34;;;;;;;;;4.50;4.00;;;;;18.27;44.00;101751.81;4749520;29;45788;-75
2022/09/20 12:29:23;;;;;;;;;4.00;3.50;;;;;18.31;43.69;101750.56;4749138;29;46058;-75
2022/09/20 12:32:01;;;;;;;;;5.50;4.00;;;;;18.30;44.13;101753.38;4749058;29;46252;-73
2022/09/20 12:34:33;;;;;;;;;6.00;4.00;;;;;18.27;44.08;101743.84;4753358;29;45637;-75
2022/09/20 12:36:58;;;;;;;;;4.50;4.50;;;;;18.28;44.33;101740.22;4805949;29;45645;-74
2022/09/20 12:39:54;;;;;;;;;4.00;3.75;;;;;18.29;44.27;101743.72;4806127;29;45591;-75
2022/09/20 12:45:52;;;;;;;;;4.00;3.00;;;;;18.29;44.25;101743.72;4805541;29;45815;-79
2022/09/20 12:48:18;;;;;;;;;3.00;3.00;;;;;18.30;43.59;101740.09;4805622;29;45662;-79
2022/09/20 12:53:59;;;;;;;;;3.50;2.00;;;;;18.32;43.68;101741.66;4804130;29;46031;-77
2022/09/20 12:56:26;;;;;;;;;3.25;2.25;;;;;18.30;43.61;101727.66;4805168;29;45547;-77
2022/09/20 12:58:54;;;;;;;;;2.00;2.00;;;;;18.32;43.67;101728.38;4819271;29;45642;-80
2022/09/20 13:01:21;;;;;;;;;3.00;3.00;;;;;18.35;43.28;101727.28;4823470;29;46756;-80
2022/09/20 13:03:48;;;;;;;;;2.50;2.50;;;;;18.34;43.83;101723.78;4823622;29;46046;-78
2022/09/20 13:06:15;;;;;;;;;3.00;3.00;;;;;18.39;44.04;101724.22;4824105;29;45887;-84
2022/09/20 13:09:04;;;;;;;;;3.00;3.00;;;;;18.44;43.60;101727.34;4828986;29;45606;-82
2022/09/20 13:11:38;;;;;;;;;4.00;2.50;;;;;18.45;44.27;101723.72;4826171;29;46963;-78
2022/09/20 13:14:19;;;;;;;;;3.00;3.00;;;;;18.50;43.94;101717.16;4825337;29;46361;-81
2022/09/20 13:16:58;;;;;;;;;2.25;2.25;;;;;18.51;44.62;101710.88;4824356;29;45783;-78
2022/09/20 13:19:37;;;;;;;;;2.75;2.00;;;;;18.59;44.68;101713.72;4824135;29;45892;-77
2022/09/20 13:22:16;;;;;;;;;5.00;3.00;;;;;18.65;44.77;101718.50;4821937;29;48028;-78
2022/09/20 13:24:53;;;;;;;;;4.25;3.75;;;;;18.71;44.19;101717.97;4822622;29;47159;-76
2022/09/20 13:27:33;;;;;;;;;4.25;3.50;;;;;18.77;44.56;101720.09;4823246;29;45822;-76
2022/09/20 13:30:31;;;;;;;;;2.00;2.00;;;;;18.82;44.39;101715.22;4823136;29;45636;-76
2022/09/20 13:33:31;;;;;;;;;5.25;3.00;;;;;18.81;44.38;101695.78;4748446;29;46529;-80